Terminal Aerodrome Forecast
Issued by NWS Paducah, KY

Home | Current Version | Previous Version | Text Only | Print | Product List | Glossary On
Versions: 1 2 3 4 5 6 7 8 9 10 11 12 13 14 15
741
FTUS43 KPAH 281120
TAFEVV
TAF
KEVV 281120Z 2812/2912 16005KT P6SM FEW080 BKN200
     FM281800 18007G17KT P6SM VCTS BKN050CB
     FM290000 17005KT P6SM SCT050=

USA.gov is the U.S. government's official web portal to all federal, state and local government web resources and services.